createdAt,value
2022-08-23T13:33:12.997Z,30.94
2022-08-23T13:35:49.752Z,30.98
2022-08-23T13:38:34.651Z,31.06
2022-08-23T13:41:15.969Z,31.16
2022-08-23T13:43:46.888Z,31.19
2022-08-23T13:46:32.009Z,31.22
2022-08-23T13:49:19.977Z,31.28
2022-08-23T13:55:01.786Z,31.34
2022-08-23T13:57:36.116Z,31.36
2022-08-23T14:00:16.471Z,31.28
2022-08-23T14:02:52.340Z,31.26
2022-08-23T14:05:24.967Z,31.28
2022-08-23T14:07:55.353Z,31.25
2022-08-23T14:10:26.231Z,31.26
2022-08-23T14:12:57.332Z,31.27
2022-08-23T14:18:18.153Z,31.33
2022-08-23T14:20:51.808Z,31.38
2022-08-23T14:23:22.395Z,31.39
2022-08-23T14:25:56.260Z,31.40
2022-08-23T14:28:29.739Z,31.43
2022-08-23T14:31:00.754Z,31.34
2022-08-23T14:33:31.675Z,31.38
2022-08-23T14:36:03.733Z,31.32
2022-08-23T14:38:34.097Z,31.31
2022-08-23T14:41:08.820Z,31.38
2022-08-23T14:43:39.311Z,31.41
2022-08-23T14:46:10.156Z,31.47
2022-08-23T14:48:40.662Z,31.48
2022-08-23T14:51:50.833Z,31.48
2022-08-23T14:54:24.788Z,31.47
2022-08-23T14:56:55.403Z,31.43
2022-08-23T14:59:25.667Z,31.45
2022-08-23T15:01:56.950Z,31.42
2022-08-23T15:04:34.135Z,31.47
2022-08-23T15:07:17.794Z,31.49
2022-08-23T15:09:56.776Z,31.46
2022-08-23T15:15:22.266Z,31.50
2022-08-23T15:17:57.376Z,31.51
2022-08-23T15:20:34.734Z,31.52
2022-08-23T15:23:05.207Z,31.51
2022-08-23T15:25:38.611Z,31.51
2022-08-23T15:28:13.288Z,31.50
2022-08-23T15:30:45.461Z,31.52
2022-08-23T15:33:16.093Z,31.50
2022-08-23T15:35:50.041Z,31.49
2022-08-23T15:38:23.041Z,31.51
2022-08-23T15:40:56.255Z,31.46
2022-08-23T15:43:34.077Z,31.46
2022-08-23T15:46:11.308Z,31.47
2022-08-23T15:48:57.239Z,31.49
2022-08-23T15:51:28.090Z,31.45
2022-08-23T15:53:59.151Z,31.45
2022-08-23T15:56:37.615Z,31.42
2022-08-23T15:59:08.138Z,31.44
2022-08-23T16:01:38.546Z,31.43
2022-08-23T16:04:09.648Z,31.42
2022-08-23T16:06:41.706Z,31.44
2022-08-23T16:09:36.426Z,31.43
2022-08-23T16:12:08.754Z,31.41
2022-08-23T16:14:42.281Z,31.41
2022-08-23T16:17:12.586Z,31.42
2022-08-23T16:19:44.145Z,31.42
2022-08-23T16:22:14.812Z,31.42
2022-08-23T16:24:45.113Z,31.43
2022-08-23T16:27:15.389Z,31.43
2022-08-23T16:29:47.078Z,31.44
2022-08-23T16:32:17.669Z,31.42
2022-08-23T16:34:47.803Z,31.42
2022-08-23T16:37:17.855Z,31.41
2022-08-23T16:39:51.445Z,31.41
2022-08-23T16:42:22.872Z,31.40
2022-08-23T16:44:53.092Z,31.41
2022-08-23T16:47:25.125Z,31.39
2022-08-23T16:49:55.500Z,31.38
2022-08-23T16:52:34.332Z,31.40
2022-08-23T16:55:10.322Z,31.41
2022-08-23T16:57:41.028Z,31.40
2022-08-23T17:00:19.315Z,31.40
2022-08-23T17:02:49.636Z,31.40
2022-08-23T17:05:22.085Z,31.38
2022-08-23T17:07:56.924Z,31.39
2022-08-23T17:10:27.803Z,31.38
2022-08-23T17:12:59.745Z,31.34
2022-08-23T17:15:35.368Z,31.38
2022-08-23T17:18:07.714Z,31.34
2022-08-23T17:20:41.225Z,31.34
2022-08-23T17:23:12.346Z,31.36
2022-08-23T17:25:45.118Z,31.35
2022-08-23T17:28:15.255Z,31.34
2022-08-23T17:30:46.016Z,31.34
2022-08-23T17:33:16.231Z,31.34
2022-08-23T17:35:47.473Z,31.33
2022-08-23T17:38:17.681Z,31.34
2022-08-23T17:40:47.963Z,31.32
2022-08-23T17:43:18.545Z,31.31
2022-08-23T17:45:51.105Z,31.31
2022-08-23T17:48:24.176Z,31.29
2022-08-23T17:50:54.326Z,31.29
2022-08-23T17:53:24.889Z,31.34
2022-08-23T17:55:54.935Z,31.31
2022-08-23T17:58:24.964Z,31.32
2022-08-23T18:00:57.994Z,31.29
2022-08-23T18:03:28.337Z,31.33
2022-08-23T18:06:16.300Z,31.32
2022-08-23T18:08:56.430Z,31.33
2022-08-23T18:11:50.298Z,31.33
2022-08-23T18:14:21.513Z,31.33
2022-08-23T18:16:58.236Z,31.32
2022-08-23T18:19:29.314Z,31.33
2022-08-23T18:22:02.305Z,31.34
2022-08-23T18:24:33.968Z,31.33
2022-08-23T18:27:21.761Z,31.36
2022-08-23T18:29:51.974Z,31.34
2022-08-23T18:32:22.793Z,31.35
2022-08-23T18:34:53.338Z,31.35
2022-08-23T18:37:26.559Z,31.35
2022-08-23T18:39:57.001Z,31.34
2022-08-23T18:42:27.479Z,31.34
2022-08-23T18:44:58.893Z,31.34
2022-08-23T18:47:29.386Z,31.32
2022-08-23T18:50:00.159Z,31.34
2022-08-23T18:52:33.302Z,31.34
2022-08-23T18:55:03.829Z,31.35
2022-08-23T18:57:37.827Z,31.36
2022-08-23T19:00:12.817Z,31.30
2022-08-23T19:02:44.297Z,31.33
2022-08-23T19:05:14.093Z,31.38
2022-08-23T19:07:44.831Z,31.37
2022-08-23T19:10:20.493Z,31.37
2022-08-23T19:12:54.464Z,31.35
2022-08-23T19:15:26.988Z,31.37
2022-08-23T19:17:57.437Z,31.39
2022-08-23T19:20:30.650Z,31.40
2022-08-23T19:23:01.617Z,31.38
2022-08-23T19:25:37.842Z,31.39
2022-08-23T19:28:10.247Z,31.42
2022-08-23T19:30:43.564Z,31.42
2022-08-23T19:33:15.912Z,31.41
2022-08-23T19:35:46.882Z,31.39
2022-08-23T19:38:20.120Z,31.41
2022-08-23T19:40:51.198Z,31.37
2022-08-23T19:43:21.524Z,31.35
2022-08-23T19:45:52.117Z,31.35
2022-08-23T19:48:22.885Z,31.34
2022-08-23T19:51:02.189Z,31.38
2022-08-23T19:53:32.734Z,31.37
2022-08-23T19:56:06.491Z,31.34
2022-08-23T19:58:36.809Z,31.33
2022-08-23T20:01:09.745Z,31.35
2022-08-23T20:03:40.224Z,31.35
2022-08-23T20:06:15.055Z,31.35
2022-08-23T20:08:49.892Z,31.34
2022-08-23T20:11:20.153Z,31.35
2022-08-23T20:13:53.256Z,31.34
2022-08-23T20:16:23.819Z,31.34
2022-08-23T20:18:54.149Z,31.35
2022-08-23T20:21:24.856Z,31.34
2022-08-23T20:24:05.846Z,31.34
2022-08-23T20:26:43.379Z,31.31
2022-08-23T20:29:27.071Z,31.31
2022-08-23T20:31:59.530Z,31.31
2022-08-23T20:34:32.737Z,31.34
2022-08-23T20:37:08.003Z,31.29
2022-08-23T20:39:41.033Z,31.31
2022-08-23T20:42:15.085Z,31.31
2022-08-23T20:44:45.386Z,31.29
2022-08-23T20:47:15.352Z,31.30
2022-08-23T20:49:45.763Z,31.31
2022-08-23T20:52:17.350Z,31.28
2022-08-23T20:54:48.182Z,31.28
2022-08-23T20:57:18.417Z,31.29
2022-08-23T20:59:52.056Z,31.28
2022-08-23T21:02:22.260Z,31.29
2022-08-23T21:04:53.765Z,31.30
2022-08-23T21:07:24.017Z,31.32
2022-08-23T21:09:59.312Z,31.33
2022-08-23T21:12:29.516Z,31.34
2022-08-23T21:14:59.425Z,31.34
2022-08-23T21:17:29.663Z,31.31
2022-08-23T21:19:59.703Z,31.33
2022-08-23T21:22:32.045Z,31.28
2022-08-23T21:25:02.833Z,31.30
2022-08-23T21:27:33.548Z,31.33
2022-08-23T21:30:07.331Z,31.32
2022-08-23T21:32:37.413Z,31.31
2022-08-23T21:35:07.689Z,31.33
2022-08-23T21:37:38.076Z,31.34
2022-08-23T21:40:11.650Z,31.33
2022-08-23T21:42:42.070Z,31.32
2022-08-23T21:45:12.540Z,31.29
2022-08-23T21:47:43.068Z,31.29
2022-08-23T21:50:13.789Z,31.32
2022-08-23T21:52:44.431Z,31.31
2022-08-23T21:55:30.125Z,31.31
2022-08-23T21:58:06.412Z,31.24
2022-08-23T22:00:39.611Z,31.24
2022-08-23T22:03:11.417Z,31.26
2022-08-23T22:05:48.676Z,31.20
2022-08-23T22:08:21.208Z,31.20
2022-08-23T22:10:57.232Z,31.24
2022-08-23T22:13:31.635Z,31.27
2022-08-23T22:16:05.519Z,31.25
2022-08-23T22:18:36.792Z,31.24
2022-08-23T22:21:09.199Z,31.25
2022-08-23T22:23:39.905Z,31.32
2022-08-23T22:26:10.456Z,31.29
2022-08-23T22:28:40.896Z,31.27
2022-08-23T22:31:17.726Z,31.27
2022-08-23T22:33:48.437Z,31.26
2022-08-23T22:36:23.195Z,31.26
2022-08-23T22:38:56.407Z,31.24
2022-08-23T22:41:36.079Z,31.26
2022-08-23T22:44:08.144Z,31.27
2022-08-23T22:46:38.529Z,31.28
2022-08-23T22:49:08.820Z,31.24
2022-08-23T22:51:40.239Z,31.22
2022-08-23T22:54:12.797Z,31.26
2022-08-23T22:56:50.339Z,31.20
2022-08-23T22:59:25.848Z,31.15
2022-08-23T23:02:03.246Z,31.12
2022-08-23T23:04:37.148Z,31.02
